Time;durP1;ratioP1;P1;durP2;ratioP2;P2;SDS_P1;SDS_P2;PMS_P1;PMS_P2;Temp;Humidity;BMP_temperature;BMP_pressure;BME280_temperature;BME280_humidity;BME280_pressure;Samples;Min_cycle;Max_cycle;Signal;HPM_P1;HPM_P2
2021/03/01 00:00:24;;;;;;;28.87;18.67;;;;;;;3.55;73.07;102164.66;2204944;80;33017;-72
2021/03/01 00:03:28;;;;;;;31.37;20.03;;;;;;;3.55;73.07;102164.66;2188931;80;28171;-70
2021/03/01 00:06:30;;;;;;;31.97;19.60;;;;;;;3.57;73.10;102169.96;2206328;80;27750;-74
2021/03/01 00:09:32;;;;;;;30.92;18.70;;;;;;;3.56;73.09;102165.08;2216556;80;29695;-75
2021/03/01 00:12:34;;;;;;;33.23;20.12;;;;;;;3.58;73.11;102160.69;2217406;80;32353;-75
2021/03/01 00:15:37;;;;;;;31.62;19.87;;;;;;;3.59;73.10;102160.27;2204876;78;33570;-70
2021/03/01 00:18:39;;;;;;;29.27;18.65;;;;;;;3.58;73.09;102155.39;2179632;80;29231;-75
2021/03/01 00:21:41;;;;;;;30.10;19.70;;;;;;;3.58;73.14;102159.81;2215218;80;28342;-73
2021/03/01 00:24:43;;;;;;;31.68;19.75;;;;;;;3.60;73.19;102160.27;2217045;80;28907;-71
2021/03/01 00:27:45;;;;;;;33.15;18.32;;;;;;;3.59;73.11;102157.16;2179793;80;31142;-74
2021/03/01 00:30:47;;;;;;;33.15;18.70;;;;;;;3.60;73.18;102164.70;2197200;80;33974;-72
2021/03/01 00:33:50;;;;;;;33.20;19.27;;;;;;;3.60;73.22;102172.19;2192889;80;29230;-74
2021/03/01 00:36:52;;;;;;;30.10;19.20;;;;;;;3.60;73.20;102176.63;2201068;80;27654;-73
2021/03/01 00:39:54;;;;;;;33.58;20.35;;;;;;;3.61;73.22;102179.72;2180999;80;29980;-71
2021/03/01 00:42:56;;;;;;;31.42;19.92;;;;;;;3.62;73.18;102192.98;2178672;80;31176;-71
2021/03/01 00:45:59;;;;;;;31.27;19.95;;;;;;;3.62;73.20;102206.23;2193851;80;33110;-71
2021/03/01 00:49:01;;;;;;;32.00;19.00;;;;;;;3.59;73.25;102207.52;2179391;80;30133;-73
2021/03/01 00:52:03;;;;;;;30.10;18.77;;;;;;;3.59;73.27;102210.16;2214819;80;28326;-70
2021/03/01 00:55:07;;;;;;;30.68;18.75;;;;;;;3.59;73.24;102208.84;2213524;80;28748;-70
2021/03/01 00:58:09;;;;;;;31.87;18.95;;;;;;;3.61;73.28;102203.13;2168564;81;32085;-71
2021/03/01 01:01:11;;;;;;;33.42;18.60;;;;;;;3.65;73.31;102194.34;2182345;80;34067;-70
2021/03/01 01:04:13;;;;;;;31.68;20.35;;;;;;;3.69;73.33;102191.72;2178827;80;30463;-72
2021/03/01 01:07:15;;;;;;;32.35;19.10;;;;;;;3.73;73.29;102188.20;2178187;80;27783;-71
2021/03/01 01:10:17;;;;;;;29.07;18.45;;;;;;;3.74;73.22;102184.27;2208132;79;28891;-70
2021/03/01 01:13:19;;;;;;;29.10;17.90;;;;;;;3.76;73.21;102187.82;2211592;79;30938;-74
2021/03/01 01:16:21;;;;;;;28.87;18.42;;;;;;;3.77;73.22;102176.34;2178812;80;33574;-71
2021/03/01 01:19:24;;;;;;;29.67;18.37;;;;;;;3.79;73.27;102177.25;2178633;81;30043;-70
2021/03/01 01:22:26;;;;;;;28.73;17.75;;;;;;;3.81;73.24;102174.59;2197542;80;28160;-73
2021/03/01 01:25:28;;;;;;;32.53;18.30;;;;;;;3.83;73.17;102162.25;2214800;80;29031;-71
2021/03/01 01:28:30;;;;;;;28.67;18.92;;;;;;;3.85;73.23;102162.25;2195312;80;32686;-70
2021/03/01 01:31:32;;;;;;;29.27;18.30;;;;;;;3.84;73.16;102157.81;2214090;79;33071;-76
2021/03/01 01:34:34;;;;;;;28.98;17.92;;;;;;;3.85;73.19;102163.58;2194059;80;29239;-69
2021/03/01 01:37:37;;;;;;;29.23;17.95;;;;;;;3.87;73.22;102173.34;2213353;80;27666;-68
2021/03/01 01:40:39;;;;;;;34.27;20.10;;;;;;;3.86;73.24;102168.00;2179482;80;29422;-72
2021/03/01 01:43:41;;;;;;;32.28;20.05;;;;;;;3.86;73.18;102167.58;2178939;80;31201;-71
2021/03/01 01:46:43;;;;;;;35.20;19.67;;;;;;;3.86;73.17;102179.52;2200813;80;33129;-76
2021/03/01 01:49:45;;;;;;;31.77;20.10;;;;;;;3.87;73.23;102170.69;2205211;79;29196;-74
2021/03/01 01:52:52;;;;;;;36.73;20.37;;;;;;;3.89;73.25;102163.61;2178800;81;27598;-72
2021/03/01 01:55:55;;;;;;;34.05;20.85;;;;;;;3.90;73.24;102165.84;2211001;80;29710;-72
2021/03/01 01:58:57;;;;;;;34.83;21.50;;;;;;;3.90;73.22;102161.86;2215162;80;31207;-71
2021/03/01 02:01:59;;;;;;;30.92;18.95;;;;;;;3.91;73.23;102171.14;2205597;80;33951;-69
2021/03/01 02:05:05;;;;;;;34.55;19.98;;;;;;;3.93;73.22;102168.52;2178933;80;30200;-70
2021/03/01 02:08:16;;;;;;;31.57;19.87;;;;;;;3.97;73.24;102166.77;2178324;81;27675;-71
2021/03/01 02:11:46;;;;;;;35.17;19.40;;;;;;;3.99;73.20;102159.27;2197082;80;28895;-72
2021/03/01 02:15:07;;;;;;;32.40;19.57;;;;;;;4.02;73.17;102155.31;2178828;80;31154;-74
2021/03/01 02:18:10;;;;;;;28.87;19.17;;;;;;;4.00;72.99;102150.44;2179379;80;32932;-74
2021/03/01 02:21:14;;;;;;;30.65;19.20;;;;;;;4.01;73.06;102149.56;2199963;80;29252;-69
2021/03/01 02:24:32;;;;;;;32.67;18.90;;;;;;;4.02;73.08;102153.99;2178779;80;27582;-69
2021/03/01 02:27:45;;;;;;;31.33;19.40;;;;;;;4.02;72.99;102150.47;2129088;83;28832;-73
2021/03/01 02:31:02;;;;;;;35.97;19.63;;;;;;;4.05;72.93;102143.41;2271261;77;27683;-73
2021/03/01 02:34:05;;;;;;;32.70;19.27;;;;;;;4.02;73.01;102146.03;2251416;78;27540;-76
2021/03/01 02:37:14;;;;;;;28.80;18.10;;;;;;;4.05;72.97;102134.13;2239608;78;28815;-72
2021/03/01 02:40:18;;;;;;;32.73;19.37;;;;;;;4.05;72.89;102141.22;2239255;78;31241;-69
2021/03/01 02:43:22;;;;;;;29.12;18.85;;;;;;;4.05;72.80;102135.91;2251924;78;33274;-75
2021/03/01 02:46:24;;;;;;;30.17;19.07;;;;;;;4.07;72.87;102136.36;2239085;78;28544;-75
2021/03/01 02:49:29;;;;;;;35.17;19.77;;;;;;;4.07;72.86;102136.36;2237822;78;27726;-70
2021/03/01 02:52:31;;;;;;;31.50;19.23;;;;;;;4.08;72.84;102137.23;2236165;78;30026;-75
2021/03/01 02:55:35;;;;;;;29.10;18.70;;;;;;;4.06;72.79;102137.66;2258752;77;31145;-72
2021/03/01 02:58:39;;;;;;;31.80;18.67;;;;;;;4.03;72.75;102137.20;2223549;78;34029;-74
2021/03/01 03:01:42;;;;;;;32.38;18.80;;;;;;;4.00;72.77;102133.66;2212070;78;28861;-74
2021/03/01 03:04:45;;;;;;;35.20;19.37;;;;;;;4.00;72.90;102134.98;2174291;81;27731;-70
2021/03/01 03:07:48;;;;;;;33.55;18.73;;;;;;;3.98;72.83;102124.34;2158749;81;28823;-75
2021/03/01 03:10:51;;;;;;;34.18;18.62;;;;;;;3.96;72.87;102128.77;2185663;81;31148;-71
2021/03/01 03:13:55;;;;;;;34.78;19.17;;;;;;;3.93;72.91;102129.62;2183229;81;33577;-75
2021/03/01 03:16:58;;;;;;;31.65;18.17;;;;;;;3.94;72.90;102132.72;2167098;81;29055;-70
2021/03/01 03:20:01;;;;;;;29.42;17.00;;;;;;;3.97;72.98;102140.25;2166670;81;27678;-70
2021/03/01 03:23:04;;;;;;;28.12;17.35;;;;;;;4.00;72.92;102139.83;2184933;81;28771;-71
2021/03/01 03:26:07;;;;;;;31.20;18.80;;;;;;;3.98;72.89;102132.75;2217674;80;31126;-70
2021/03/01 03:29:09;;;;;;;30.48;18.75;;;;;;;3.98;72.87;102131.42;2186530;80;33324;-70
2021/03/01 03:32:11;;;;;;;32.10;18.82;;;;;;;3.96;72.84;102135.41;2211725;80;28858;-74
2021/03/01 03:35:16;;;;;;;31.73;18.40;;;;;;;3.94;72.88;102133.17;2195648;80;27738;-72
2021/03/01 03:38:26;;;;;;;31.50;19.85;;;;;;;3.93;72.95;102139.35;2162485;81;28007;-73
2021/03/01 03:41:29;;;;;;;28.57;17.42;;;;;;;3.91;72.97;102135.80;2206175;80;32095;-68
2021/03/01 03:44:32;;;;;;;28.07;16.82;;;;;;;3.90;73.03;102144.17;2216462;80;33202;-73
2021/03/01 03:47:35;;;;;;;31.97;18.15;;;;;;;3.91;73.05;102143.75;2176163;81;29289;-70
2021/03/01 03:50:38;;;;;;;26.52;16.55;;;;;;;3.91;73.04;102151.70;2207289;80;27698;-70
2021/03/01 03:53:48;;;;;;;27.15;16.32;;;;;;;3.90;73.04;102145.95;2175306;81;29983;-74
2021/03/01 03:56:54;;;;;;;27.02;16.27;;;;;;;3.89;72.98;102145.50;2204851;80;32048;-70
2021/03/01 03:59:57;;;;;;;27.17;16.55;;;;;;;3.90;73.07;102144.63;2187782;80;33056;-74
2021/03/01 04:03:10;;;;;;;27.93;17.07;;;;;;;3.90;73.10;102139.32;2185462;81;29450;-73
2021/03/01 04:06:14;;;;;;;31.90;18.90;;;;;;;3.92;73.12;102140.23;2151645;81;27773;-73
2021/03/01 04:09:19;;;;;;;33.00;19.67;;;;;;;3.93;73.10;102145.98;2186427;81;28820;-70
2021/03/01 04:12:21;;;;;;;31.33;17.92;;;;;;;3.91;73.06;102147.27;2170832;81;31239;-72
2021/03/01 04:15:23;;;;;;;41.20;18.55;;;;;;;3.91;73.11;102141.97;2171524;81;33112;-69
2021/03/01 04:18:29;;;;;;;27.80;17.92;;;;;;;3.92;73.18;102138.45;2165029;81;29604;-73
2021/03/01 04:21:33;;;;;;;29.77;18.20;;;;;;;3.94;73.19;102146.44;2162619;81;27633;-70
2021/03/01 04:24:38;;;;;;;30.72;19.30;;;;;;;3.95;73.13;102142.91;2175941;81;29770;-75
2021/03/01 04:27:41;;;;;;;32.67;20.30;;;;;;;3.95;73.23;102141.13;2137503;81;31215;-74
2021/03/01 04:30:43;;;;;;;37.20;20.23;;;;;;;3.95;73.21;102141.13;2166753;81;33214;-75
2021/03/01 04:33:47;;;;;;;34.63;20.68;;;;;;;3.99;73.27;102141.16;2157228;82;29971;-75
2021/03/01 04:36:49;;;;;;;38.98;21.37;;;;;;;3.98;73.21;102137.59;2132521;82;27917;-73
2021/03/01 04:39:52;;;;;;;36.35;21.57;;;;;;;3.98;73.16;102142.91;2189680;80;28813;-69
2021/03/01 04:42:54;;;;;;;34.73;21.48;;;;;;;3.95;73.16;102149.53;2187743;80;31594;-71
2021/03/01 04:45:57;;;;;;;42.67;25.08;;;;;;;3.93;73.21;102138.90;2181230;80;33877;-75
2021/03/01 04:49:01;;;;;;;44.00;23.47;;;;;;;3.94;73.30;102139.80;2132841;83;28871;-75
2021/03/01 04:52:03;;;;;;;35.88;23.57;;;;;;;3.96;73.29;102147.34;2140620;81;28179;-74
2021/03/01 04:55:07;;;;;;;41.00;22.67;;;;;;;3.98;73.30;102147.34;2135885;82;28838;-75
2021/03/01 04:58:10;;;;;;;38.35;23.42;;;;;;;3.97;73.32;102150.44;2150927;82;32114;-75
2021/03/01 05:01:14;;;;;;;42.48;25.88;;;;;;;3.99;73.33;102155.29;2146522;82;33093;-74
2021/03/01 05:04:16;;;;;;;38.98;24.77;;;;;;;4.00;73.28;102147.78;2118598;82;29816;-74
2021/03/01 05:07:20;;;;;;;39.80;25.23;;;;;;;3.99;73.29;102143.81;2140159;82;27718;-71
2021/03/01 05:10:22;;;;;;;49.27;25.92;;;;;;;4.03;73.38;102151.80;2149994;82;28898;-71
2021/03/01 05:13:25;;;;;;;43.73;26.05;;;;;;;4.05;73.32;102149.17;2154987;81;31128;-69
2021/03/01 05:16:28;;;;;;;45.70;26.73;;;;;;;4.04;73.25;102155.35;2118523;84;32308;-72
2021/03/01 05:19:31;;;;;;;50.28;26.65;;;;;;;4.00;73.22;102150.44;2129933;82;28835;-76
2021/03/01 05:22:33;;;;;;;54.80;28.65;;;;;;;3.99;73.28;102148.66;2148994;82;28277;-76
2021/03/01 05:25:35;;;;;;;52.30;29.45;;;;;;;3.98;73.31;102148.66;2154471;82;28819;-74
2021/03/01 05:28:38;;;;;;;56.23;30.12;;;;;;;3.96;73.33;102147.34;2135017;81;31355;-71
2021/03/01 05:31:40;;;;;;;51.33;28.65;;;;;;;3.97;73.35;102152.19;2162330;79;34058;-76
2021/03/01 05:34:42;;;;;;;54.40;28.70;;;;;;;3.96;73.34;102148.66;2193176;80;28864;-76
2021/03/01 05:37:44;;;;;;;56.08;30.43;;;;;;;3.99;73.39;102151.77;2185314;80;27688;-70
2021/03/01 05:40:48;;;;;;;55.00;29.92;;;;;;;3.99;73.34;102161.92;2186360;80;30308;-72
2021/03/01 05:43:50;;;;;;;56.25;30.20;;;;;;;3.99;73.34;102165.02;2197464;80;31210;-70
2021/03/01 05:46:55;;;;;;;59.95;30.17;;;;;;;4.01;73.36;102171.23;2158425;81;33175;-73
2021/03/01 05:49:59;;;;;;;;;;;;;;;4.01;73.38;102172.56;2182859;81;28847;-70
2021/03/01 05:53:03;;;;;;;66.92;32.50;;;;;;;4.01;73.39;102180.52;2192658;81;27692;-70
2021/03/01 05:56:06;;;;;;;58.70;33.90;;;;;;;4.00;73.45;102186.23;2188178;80;30170;-71
2021/03/01 05:59:09;;;;;;;63.28;31.60;;;;;;;4.01;73.46;102184.04;2211326;80;31902;-71
2021/03/01 06:02:11;;;;;;;56.08;30.35;;;;;;;4.02;73.44;102192.90;2157341;81;33118;-71
2021/03/01 06:05:16;;;;;;;55.35;30.80;;;;;;;4.03;73.45;102192.90;2212124;80;29105;-71
2021/03/01 06:08:19;;;;;;;61.67;32.40;;;;;;;4.05;73.46;102192.48;2215099;80;27740;-70
2021/03/01 06:11:21;;;;;;;59.08;32.17;;;;;;;4.05;73.44;102192.48;2191701;81;29498;-74
2021/03/01 06:14:24;;;;;;;60.00;32.05;;;;;;;4.08;73.45;102196.91;2216340;80;31124;-73
2021/03/01 06:17:26;;;;;;;57.48;31.37;;;;;;;4.09;73.44;102201.34;2204644;80;33066;-74
2021/03/01 06:20:28;;;;;;;54.67;30.85;;;;;;;4.11;73.46;102203.57;2206354;80;28865;-72
2021/03/01 06:23:36;;;;;;;57.98;31.80;;;;;;;4.13;73.44;102202.28;2165034;81;27728;-71
2021/03/01 06:26:38;;;;;;;56.48;31.30;;;;;;;4.16;73.45;102205.83;2173538;81;28820;-71
2021/03/01 06:30:10;;;;;;;57.27;31.07;;;;;;;4.18;73.39;102209.39;2153008;82;31145;-72
2021/03/01 06:33:18;;;;;;;57.13;29.92;;;;;;;4.18;73.32;102215.11;2171563;81;34025;-72
2021/03/01 06:36:20;;;;;;;60.58;30.75;;;;;;;4.20;73.45;102212.04;2173828;81;28933;-72
2021/03/01 06:39:48;;;;;;;60.25;31.97;;;;;;;4.21;73.38;102221.36;2155447;81;27702;-69
2021/03/01 06:42:50;;;;;;;56.00;29.98;;;;;;;4.26;73.41;102218.73;2145820;81;29871;-72
2021/03/01 06:45:56;;;;;;;62.88;32.75;;;;;;;4.29;73.36;102221.41;2171205;81;31156;-72
2021/03/01 06:49:17;;;;;;;68.42;34.85;;;;;;;4.32;73.32;102224.52;2146572;81;33298;-70
2021/03/01 06:52:38;;;;;;;56.55;29.70;;;;;;;4.35;73.36;102228.08;2158106;82;30231;-70
2021/03/01 06:56:04;;;;;;;62.23;31.27;;;;;;;4.37;73.26;102232.09;2168539;81;27680;-72
2021/03/01 06:59:15;;;;;;;53.60;29.42;;;;;;;4.39;73.27;102228.55;2157765;82;28852;-73
2021/03/01 07:02:22;;;;;;;57.00;30.20;;;;;;;4.41;73.29;102228.12;2138633;83;31127;-72
2021/03/01 07:05:25;;;;;;;62.48;30.92;;;;;;;4.43;73.18;102239.20;2169354;81;34126;-69
2021/03/01 07:08:52;;;;;;;55.10;30.05;;;;;;;4.44;73.20;102237.87;2144235;83;29117;-69
2021/03/01 07:11:55;;;;;;;57.98;30.65;;;;;;;4.47;73.23;102235.70;2143834;82;27844;-71
2021/03/01 07:14:57;;;;;;;56.53;29.48;;;;;;;4.52;73.24;102237.92;2160839;82;28871;-73
2021/03/01 07:18:00;;;;;;;67.27;30.90;;;;;;;4.56;73.17;102239.27;2168248;82;31085;-71
2021/03/01 07:21:02;;;;;;;55.90;29.20;;;;;;;4.60;73.13;102235.31;2165113;81;33112;-71
2021/03/01 07:24:06;;;;;;;58.65;29.98;;;;;;;4.63;73.09;102237.58;2162886;82;30168;-74
2021/03/01 07:27:09;;;;;;;60.73;29.57;;;;;;;4.65;72.98;102237.12;2180892;81;27663;-73
2021/03/01 07:30:13;;;;;;;62.58;29.85;;;;;;;4.69;72.95;102248.22;2143386;80;30083;-74
2021/03/01 07:33:16;;;;;;;55.58;30.32;;;;;;;4.72;73.04;102244.68;2196542;80;32057;-75
2021/03/01 07:36:18;;;;;;;53.05;29.63;;;;;;;4.79;72.90;102249.62;2185150;80;33119;-66
2021/03/01 07:39:20;;;;;;;58.65;29.50;;;;;;;4.82;72.92;102250.94;2188461;80;29232;-66
2021/03/01 07:42:23;;;;;;;52.58;27.80;;;;;;;4.88;72.90;102250.11;2192121;80;28200;-65
2021/03/01 07:45:25;;;;;;;52.38;28.67;;;;;;;4.93;72.84;102247.92;2198276;80;30126;-67
2021/03/01 07:48:42;;;;;;;71.53;39.10;;;;;;;5.00;72.81;102251.50;2217343;80;31140;-66
2021/03/01 07:51:50;;;;;;;62.17;35.92;;;;;;;5.05;72.71;102256.38;2217507;80;33120;-65
2021/03/01 07:55:08;;;;;;;63.65;33.18;;;;;;;5.11;72.67;102257.74;2138815;83;29168;-65
2021/03/01 07:58:10;;;;;;;69.20;36.77;;;;;;;5.17;72.70;102257.78;2177996;81;27713;-62
2021/03/01 08:01:15;;;;;;;156.67;74.47;;;;;;;5.23;72.45;102258.67;2156439;80;28885;-63
2021/03/01 08:04:34;;;;;;;189.75;82.45;;;;;;;5.30;72.40;102267.13;2208527;80;32617;-64
2021/03/01 08:07:43;;;;;;;156.05;64.37;;;;;;;5.33;72.39;102273.34;2173932;81;33109;-64
2021/03/01 08:10:45;;;;;;;256.15;112.03;;;;;;;5.36;72.21;102272.48;2177453;81;29164;-64
2021/03/01 08:13:47;;;;;;;195.62;79.30;;;;;;;5.40;72.11;102282.22;2177342;81;27803;-63
2021/03/01 08:16:55;;;;;;;83.05;41.25;;;;;;;5.41;72.04;102276.48;2177818;81;29969;-63
2021/03/01 08:20:00;;;;;;;75.95;47.45;;;;;;;5.40;71.95;102286.20;2172729;81;31163;-62
2021/03/01 08:23:10;;;;;;;55.83;30.23;;;;;;;5.43;72.04;102284.02;2138774;81;33185;-63
2021/03/01 08:26:31;;;;;;;79.37;39.88;;;;;;;5.46;71.93;102284.04;2211713;80;28348;-63
2021/03/01 08:29:33;;;;;;;53.75;29.98;;;;;;;5.51;71.95;102286.70;2216690;80;27696;-63
2021/03/01 08:32:35;;;;;;;79.45;37.05;;;;;;;5.54;71.81;102296.91;2197939;80;28824;-62
2021/03/01 08:35:47;;;;;;;87.97;40.48;;;;;;;5.58;71.83;102289.81;2162373;81;31935;-62
2021/03/01 08:38:54;;;;;;;67.53;35.08;;;;;;;5.63;71.77;102287.61;2184886;81;33110;-63
2021/03/01 08:41:56;;;;;;;54.00;28.07;;;;;;;5.71;71.79;102288.97;2174811;80;29176;-63
2021/03/01 08:44:59;;;;;;;43.02;23.70;;;;;;;5.78;71.57;102284.58;2186308;80;27663;-63
2021/03/01 08:48:18;;;;;;;60.35;31.25;;;;;;;5.81;71.41;102288.55;2219226;80;27704;-64
2021/03/01 08:51:21;;;;;;;61.15;33.38;;;;;;;5.86;71.36;102291.25;2219107;80;31152;-63
2021/03/01 08:54:32;;;;;;;49.00;27.02;;;;;;;5.90;71.27;102290.34;2218941;80;33115;-65
2021/03/01 08:57:55;;;;;;;39.38;22.50;;;;;;;5.97;71.25;102293.48;2184968;81;29637;-65
2021/03/01 09:01:07;;;;;;;45.57;25.00;;;;;;;6.06;70.92;102299.29;2394750;74;29839;-65
2021/03/01 09:04:14;;;;;;;40.45;23.30;;;;;;;6.02;70.80;102298.41;2349497;75;27605;-64
2021/03/01 09:07:17;;;;;;;70.80;35.17;;;;;;;6.02;70.80;102312.13;2321698;75;29789;-64
2021/03/01 09:10:24;;;;;;;43.20;22.80;;;;;;;6.04;70.71;102311.70;2305959;77;32482;-62
2021/03/01 09:13:28;;;;;;;40.25;20.68;;;;;;;6.04;70.66;102315.23;2273190;77;34147;-64
2021/03/01 09:16:34;;;;;;;42.20;20.30;;;;;;;6.12;70.60;102314.37;2329294;75;29686;-63
2021/03/01 09:19:36;;;;;;;36.10;21.02;;;;;;;6.13;70.38;102313.48;2349672;75;27667;-64
2021/03/01 09:22:46;;;;;;;40.48;23.12;;;;;;;6.12;70.34;102316.61;2349232;75;28803;-64
2021/03/01 09:25:48;;;;;;;43.75;22.40;;;;;;;6.15;70.37;102314.38;2330990;75;32101;-65
2021/03/01 09:29:02;;;;;;;42.50;25.15;;;;;;;6.18;70.22;102322.38;2315368;75;33616;-63
2021/03/01 09:32:07;;;;;;;42.55;20.65;;;;;;;6.19;70.16;102321.03;2286427;75;28816;-67
2021/03/01 09:35:24;;;;;;;34.27;18.40;;;;;;;6.22;70.10;102319.72;2230744;78;27597;-65
2021/03/01 09:38:30;;;;;;;25.37;15.83;;;;;;;6.27;70.24;102315.72;2213275;80;28829;-64
2021/03/01 09:41:41;;;;;;;30.25;17.02;;;;;;;6.33;69.81;102315.73;2218132;80;31136;-64
2021/03/01 09:44:47;;;;;;;31.07;15.78;;;;;;;6.36;69.71;102318.41;2240015;78;33115;-63
2021/03/01 09:48:15;;;;;;;34.20;16.48;;;;;;;6.38;69.44;102317.06;2238291;78;28119;-64
2021/03/01 09:51:20;;;;;;;29.15;18.27;;;;;;;6.34;69.47;102321.51;2142778;83;27804;-64
2021/03/01 09:54:24;;;;;;;;;;;;;;;6.38;69.52;102321.92;2121010;83;29925;-64
2021/03/01 09:57:31;;;;;;;28.87;16.10;;;;;;;6.44;69.37;102321.07;2140460;83;32418;-67
2021/03/01 10:00:38;;;;;;;34.13;17.27;;;;;;;6.44;69.39;102323.73;2092405;84;32350;-65
2021/03/01 10:03:47;;;;;;;33.95;18.52;;;;;;;6.49;69.19;102313.95;2132227;83;29718;-66
2021/03/01 10:06:50;;;;;;;30.92;17.50;;;;;;;6.53;69.39;102311.73;2114196;83;27743;-66
2021/03/01 10:09:56;;;;;;;29.57;17.32;;;;;;;6.60;69.23;102320.61;2107612;84;28817;-63
2021/03/01 10:13:03;;;;;;;29.25;18.10;;;;;;;6.63;69.10;102317.95;2106724;84;31368;-64
2021/03/01 10:16:06;;;;;;;35.50;17.35;;;;;;;6.67;69.01;102319.73;2109365;83;32644;-63
2021/03/01 10:19:23;;;;;;;30.00;16.90;;;;;;;6.71;68.84;102319.70;2131566;83;28926;-63
2021/03/01 10:22:56;;;;;;;31.40;18.37;;;;;;;6.76;69.02;102319.27;2111087;83;27858;-67
2021/03/01 10:26:18;;;;;;;36.23;18.40;;;;;;;6.84;68.79;102329.02;2342517;76;27575;-66
2021/03/01 10:29:40;;;;;;;33.58;18.77;;;;;;;6.81;68.76;102322.36;2262150;75;27690;-65
2021/03/01 10:32:45;;;;;;;34.83;19.17;;;;;;;6.86;68.63;102322.81;2282080;77;29754;-64
2021/03/01 10:36:03;;;;;;;35.60;20.48;;;;;;;6.86;68.48;102322.38;2261876;78;31180;-66
2021/03/01 10:39:29;;;;;;;42.00;21.27;;;;;;;6.89;68.53;102318.35;2171763;81;33095;-65
2021/03/01 10:42:37;;;;;;;32.73;19.25;;;;;;;6.92;68.44;102315.69;2198696;79;28584;-65
2021/03/01 10:45:50;;;;;;;35.17;20.95;;;;;;;6.97;68.22;102319.24;2208828;79;27647;-65
2021/03/01 10:48:53;;;;;;;34.63;19.37;;;;;;;7.01;68.25;102315.25;2180794;79;28896;-68
2021/03/01 10:51:58;;;;;;;33.10;21.02;;;;;;;7.04;68.06;102316.55;2203655;78;31138;-63
2021/03/01 10:55:01;;;;;;;;;;;;;;;7.07;68.15;102315.21;2201637;79;34053;-66
2021/03/01 10:58:07;;;;;;;33.30;18.27;;;;;;;7.11;67.79;102318.32;2164573;80;30008;-64
2021/03/01 11:01:11;;;;;;;29.10;17.27;;;;;;;7.09;68.04;102318.77;2201265;78;27795;-64
2021/03/01 11:04:18;;;;;;;31.37;17.77;;;;;;;7.14;68.12;102315.19;2201407;78;30695;-65
2021/03/01 11:07:22;;;;;;;29.60;17.80;;;;;;;7.24;68.20;102323.18;2204318;78;32099;-64
2021/03/01 11:10:26;;;;;;;30.82;18.90;;;;;;;7.30;67.95;102317.38;2196091;79;33445;-65
2021/03/01 11:13:29;;;;;;;35.23;19.67;;;;;;;7.36;67.83;102316.92;2202526;78;28898;-65
2021/03/01 11:16:33;;;;;;;37.03;21.82;;;;;;;7.39;67.66;102320.46;2260573;77;28283;-66
2021/03/01 11:19:35;;;;;;;36.15;19.23;;;;;;;7.39;67.53;102312.89;2283736;77;28814;-63
2021/03/01 11:22:39;;;;;;;29.92;18.23;;;;;;;7.39;67.45;102316.46;2277314;77;30320;-68
2021/03/01 11:25:43;;;;;;;34.75;19.12;;;;;;;7.38;67.12;102321.35;2274606;77;33110;-65
2021/03/01 11:28:48;;;;;;;39.88;20.72;;;;;;;7.34;67.20;102324.04;2266220;77;28108;-64
2021/03/01 11:31:52;;;;;;;35.65;18.67;;;;;;;7.32;67.06;102322.69;2283211;77;27692;-64
2021/03/01 11:35:17;;;;;;;33.50;18.52;;;;;;;7.29;66.81;102318.27;2271170;77;28821;-64
2021/03/01 11:38:26;;;;;;;32.20;19.07;;;;;;;7.26;66.93;102320.94;2146408;81;32094;-66
2021/03/01 11:41:43;;;;;;;26.93;16.37;;;;;;;7.27;66.83;102327.17;2182336;79;30904;-66
2021/03/01 11:44:46;;;;;;;36.10;18.67;;;;;;;7.19;66.65;102321.87;2162635;80;27738;-65
2021/03/01 11:47:48;;;;;;;33.53;17.82;;;;;;;7.20;66.59;102320.07;2113829;82;28842;-63
2021/03/01 11:50:51;;;;;;;35.90;18.40;;;;;;;7.24;66.77;102315.19;2153675;81;31145;-64
2021/03/01 11:53:54;;;;;;;26.93;17.52;;;;;;;7.34;67.16;102316.91;2151271;82;33991;-63
2021/03/01 11:56:59;;;;;;;27.25;17.35;;;;;;;7.39;66.66;102308.89;2150714;82;28544;-65
2021/03/01 12:00:04;;;;;;;31.05;16.87;;;;;;;7.47;66.57;102311.52;2182216;79;27672;-64
2021/03/01 12:03:07;;;;;;;;;;;;;;;7.45;66.45;102304.41;2184129;81;28838;-66
2021/03/01 12:06:14;;;;;;;;;;;;;;;7.46;66.22;102305.32;2184476;81;31151;-65
2021/03/01 12:09:17;;;;;;;31.35;18.48;;;;;;;7.49;66.46;102301.31;2191851;79;33981;-65
2021/03/01 12:12:19;;;;;;;36.13;20.32;;;;;;;7.52;66.37;102303.97;2184864;81;28727;-66
2021/03/01 12:15:21;;;;;;;34.00;19.52;;;;;;;7.53;65.98;102297.72;2181432;81;27661;-65
2021/03/01 12:18:23;;;;;;;29.70;19.73;;;;;;;7.53;66.23;102296.84;2182998;79;28828;-66
2021/03/01 12:21:26;;;;;;;35.13;20.25;;;;;;;7.58;66.16;102297.25;2173158;79;31194;-66
2021/03/01 12:24:28;;;;;;;29.02;17.37;;;;;;;7.57;66.02;102295.95;2187690;79;33342;-65
2021/03/01 12:27:30;;;;;;;30.65;17.92;;;;;;;7.59;65.69;102298.16;2174993;81;28860;-65
2021/03/01 12:30:33;;;;;;;27.07;16.00;;;;;;;7.57;65.84;102303.94;2152584;80;27832;-65
2021/03/01 12:33:35;;;;;;;26.05;16.60;;;;;;;7.57;65.95;102288.81;2190709;80;28833;-65
2021/03/01 12:36:37;;;;;;;27.55;16.87;;;;;;;7.63;66.00;102284.34;2151380;81;31136;-68
2021/03/01 12:39:39;;;;;;;34.15;17.17;;;;;;;7.71;66.08;102287.84;2136916;81;33086;-67
2021/03/01 12:42:42;;;;;;;30.70;16.65;;;;;;;7.80;65.84;102282.48;2183983;80;29301;-67
2021/03/01 12:45:44;;;;;;;28.67;17.27;;;;;;;7.85;65.92;102276.67;2185073;80;27783;-67
2021/03/01 12:48:46;;;;;;;28.05;17.77;;;;;;;7.91;65.59;102275.28;2184775;80;28821;-65
2021/03/01 12:51:50;;;;;;;28.23;17.87;;;;;;;7.91;65.35;102274.41;2135796;82;30332;-67
2021/03/01 12:54:52;;;;;;;31.27;17.65;;;;;;;7.90;65.58;102272.63;2134134;83;33142;-66
2021/03/01 12:57:54;;;;;;;30.77;17.27;;;;;;;7.99;65.48;102275.69;2135481;83;28873;-65
2021/03/01 13:00:56;;;;;;;27.90;15.80;;;;;;;8.00;65.08;102264.98;2135834;83;27706;-65
2021/03/01 13:03:58;;;;;;;32.83;15.38;;;;;;;7.99;64.87;102270.35;2135717;82;28814;-66
2021/03/01 13:07:01;;;;;;;24.70;15.38;;;;;;;7.95;64.73;102268.13;2135287;83;31186;-65
2021/03/01 13:10:06;;;;;;;26.85;16.55;;;;;;;7.90;64.78;102268.62;2134137;81;33120;-66
2021/03/01 13:13:08;;;;;;;25.85;16.30;;;;;;;7.90;64.91;102268.17;2119292;82;28926;-67
2021/03/01 13:16:10;;;;;;;23.92;15.08;;;;;;;7.94;65.01;102269.06;2126017;83;27774;-65
2021/03/01 13:19:12;;;;;;;58.05;35.15;;;;;;;7.97;64.97;102266.80;2135414;81;29029;-67
2021/03/01 13:22:15;;;;;;;42.40;26.77;;;;;;;8.06;65.04;102254.71;2134832;83;32052;-65
2021/03/01 13:25:17;;;;;;;169.72;69.92;;;;;;;8.11;64.93;102256.03;2135520;83;33075;-65
2021/03/01 13:28:19;;;;;;;33.45;19.20;;;;;;;8.19;64.79;102255.05;2135525;83;28867;-67
2021/03/01 13:31:21;;;;;;;29.82;17.87;;;;;;;8.21;64.58;102255.92;2135842;83;27813;-67
2021/03/01 13:34:23;;;;;;;29.48;15.90;;;;;;;8.20;64.38;102259.49;2135216;83;29712;-66
2021/03/01 13:37:25;;;;;;;23.80;15.83;;;;;;;8.23;64.42;102253.70;2128010;81;31207;-65
2021/03/01 13:40:28;;;;;;;38.17;25.23;;;;;;;8.20;64.26;102254.15;2149070;81;33142;-67
2021/03/01 13:43:30;;;;;;;74.15;36.45;;;;;;;8.22;64.05;102252.83;2172905;81;28796;-65
2021/03/01 13:46:33;;;;;;;44.58;26.33;;;;;;;8.18;64.34;102247.97;2153065;81;27785;-64
2021/03/01 13:49:35;;;;;;;36.40;16.30;;;;;;;8.25;64.36;102245.22;2142852;80;28891;-66
2021/03/01 13:52:38;;;;;;;29.23;16.95;;;;;;;8.24;64.05;102241.69;2141019;81;32030;-63
2021/03/01 13:55:40;;;;;;;26.80;16.67;;;;;;;8.24;64.09;102249.70;2142999;80;33110;-66
2021/03/01 13:58:43;;;;;;;29.63;16.50;;;;;;;8.26;63.72;102245.23;2147247;80;29714;-66
2021/03/01 14:01:45;;;;;;;39.70;19.85;;;;;;;8.22;63.61;102243.48;2142796;80;27931;-67
2021/03/01 14:04:47;;;;;;;28.40;15.98;;;;;;;8.18;63.69;102246.63;2180639;80;28822;-69
2021/03/01 14:07:49;;;;;;;23.60;15.68;;;;;;;8.15;63.76;102246.66;2182406;80;31191;-67
2021/03/01 14:10:51;;;;;;;31.52;17.23;;;;;;;8.11;63.41;102243.56;2137743;81;33116;-65
2021/03/01 14:13:54;;;;;;;31.42;16.45;;;;;;;8.08;63.80;102244.91;2144026;80;28849;-66